Weather observations for the past three days for
Caldwell - Caldwell Industrial Airport
Imperial (Metric)
Date Time (mdt) Wind (mph) Vis. (mi.) Weather Sky Cond. Temperature (ºF) Relative Humidity Wind Chill (°F) Heat Index (°F) Pressure Precipitation (in)
Air Dwpt 6 hour altimeter (in) sea level (mb) 1 hr 3 hr 6 hr
Max. Min.
10 08:56 E 7 10.00 Fair CLR 60.1 37 42% 30.09 1017.9
10 07:56 E 6 10.00 Fair CLR 53.1 41 64% 30.09 1017.8
10 06:56 E 6 10.00 Fair CLR 46 37.9 73% 44 30.08 1017.7
10 05:56 NE 3 10.00 Fair CLR 45 39 59 45 80% 30.07 1017.5
10 04:56 Calm 10.00 Fair CLR 48.9 39 69% 30.06 1017.0
10 03:56 NE 3 10.00 Fair CLR 48 41 77% 30.06 1016.8
10 02:56 E 5 10.00 Fair CLR 48.9 41 74% 48 30.05 1016.9
10 01:56 N 3 10.00 Fair CLR 52 39.9 64% 30.06 1017.0
10 00:56 N 5 10.00 Fair CLR 53.1 39.9 61% 30.05 1016.8
09 23:56 Calm 10.00 Fair CLR 55.9 37.9 77 55 51% 30.05 1016.7
09 22:56 NE 3 10.00 Fair CLR 57.9 37.9 48% 30.06 1016.9
09 21:56 SE 3 10.00 Fair CLR 66 34 30% 30.04 1016.2
09 20:56 NE 7 10.00 Fair CLR 68 34 28% 30.03 1015.9
09 19:56 NW 3 10.00 Fair CLR 73.9 32 21% 30.03 1015.9
09 18:56 NW 7 10.00 Fair CLR 75.9 28.9 18% 76 30.04 1016.2
09 17:56 W 7 10.00 Fair CLR 77 32 77 66 19% 77 30.05 1016.5
09 16:56 SW 7 10.00 Fair CLR 75.9 32 20% 76 30.06 1016.9
09 15:56 W 10 G 16 10.00 Fair CLR 75 34 22% 76 30.09 1017.7
09 14:56 W 9 G 16 10.00 Fair CLR 73 34 24% 30.11 1018.4
09 13:56 W 9 10.00 Fair CLR 72 36 27% 30.13 1019.1
09 12:56 NW 5 G 17 10.00 Fair CLR 70 39 32% 30.14 1019.8
09 11:56 W 12 10.00 Fair CLR 66.9 37.9 66.9 48.9 35% 30.16 1020.2
09 10:56 W 12 10.00 Fair CLR 64 39 40% 30.16 1020.5
09 09:56 W 12 10.00 Fair CLR 62.1 41 46% 30.16 1020.3
09 08:56 W 8 10.00 Fair CLR 57 39 51% 30.16 1020.3
09 07:56 W 8 10.00 Fair CLR 53.1 37.9 57% 30.15 1019.8
09 06:56 W 8 10.00 Fair CLR 48.9 36 61% 46 30.13 1019.4
09 05:56 W 9 10.00 Fair CLR 48.9 37 57.9 48.9 64% 45 30.12 1018.8
09 04:56 W 10 10.00 Fair CLR 52 36 55% 30.11 1018.6
09 03:56 W 9 10.00 Fair CLR 53.1 35.1 51% 30.1 1018.2
09 02:56 W 9 10.00 Fair CLR 54 34 47% 30.1 1018.0
09 01:56 SW 9 10.00 Fair CLR 55 34 45% 30.09 1017.5
09 00:56 SW 8 10.00 Fair CLR 55.9 36 47% 30.06 1016.7
08 23:56 W 9 10.00 Fair CLR 57.9 39 78.1 57.9 50% 30.03 1015.9
08 22:56 W 8 10.00 Fair CLR 61 39 44% 30.01 1015.0
08 21:56 NW 6 9.00 Fair CLR 64.9 39 39% 29.98 1014.0
08 20:56 N 3 9.00 Fair CLR 69.1 39.9 35% 29.95 1012.9
08 19:56 N 10 10.00 Fair CLR 73.9 39 28% 29.94 1012.6
08 18:56 N 8 10.00 Fair CLR 75 39.9 28% 77 29.94 1012.6
08 17:56 NE 5 10.00 Fair CLR 75.9 37 80.1 72 25% 77 29.95 1012.9
08 16:56 Vrbl 3 10.00 Fair CLR 77 37.9 24% 77 29.95 1013.0
08 15:56 N 10 10.00 Fair CLR 75.9 39 26% 77 29.97 1013.7
08 14:56 NW 6 10.00 Fair CLR 75 37 25% 77 29.98 1014.1
08 13:56 N 6 10.00 Fair CLR 75.9 37 25% 77 29.99 1014.1
08 12:56 Vrbl 3 9.00 Fair CLR 73.9 32 21% 30.01 1014.7
08 11:56 NW 3 10.00 Fair CLR 72 35.1 72 48.9 26% 30.03 1015.3
08 10:56 NW 5 10.00 Fair CLR 70 39 32% 30.03 1015.6
08 09:56 NW 5 10.00 Fair CLR 64.9 39.9 40% 30.03 1015.6
08 08:56 Calm 10.00 Fair CLR 60.1 41 50% 30.03 1015.5
08 07:56 Calm 10.00 Fair CLR 54 43 67% 30.01 1015.1
08 06:56 W 3 10.00 Fair CLR 50 39.9 68% 29.99 1014.6
08 05:56 Calm 10.00 Fair CLR 50 42.1 64 48 74% 29.98 1014.1
08 04:56 Calm 10.00 Fair CLR 51.1 41 69% 29.98 1013.8
08 03:56 W 8 10.00 Fair CLR 53.1 41 64% 29.97 1013.4
08 02:56 W 7 10.00 Fair CLR 55 42.1 62% 29.96 1013.0
08 01:56 W 6 10.00 Fair CLR 57.9 43 58% 29.95 1012.6
08 00:56 W 6 10.00 Fair CLR 59 42.1 54% 29.94 1012.3
07 23:56 W 5 10.00 Fair CLR 62.1 42.1 78.1 62.1 48% 29.93 1012.1
07 22:56 Calm 10.00 Fair CLR 62.1 42.1 48% 29.92 1011.9
07 21:56 Calm 10.00 Fair CLR 66 39.9 39% 29.92 1011.5
07 20:56 Calm 10.00 Fair CLR 72 37 28% 29.9 1010.9
07 19:56 N 7 10.00 Fair CLR 73.9 39.9 29% 29.89 1010.6
07 18:56 N 10 9.00 Fair CLR 75.9 39 26% 77 29.89 1010.8
07 17:56 N 12 G 16 10.00 Fair CLR 78.1 42.1 79 72 28% 78 29.89 1010.8
07 16:56 N 8 10.00 Fair CLR 79 44.1 29% 79 29.91 1011.2
07 15:56 NW 5 10.00 Fair CLR 79 41 26% 78 29.93 1011.9
07 14:56 W 10 G 16 10.00 Fair CLR 77 39.9 26% 77 29.94 1012.5
07 13:56 Calm 10.00 Fair CLR 77 41 28% 78 29.96 1013.1
07 12:56 NW 5 10.00 Fair CLR 73.9 41 31% 29.98 1013.6
07 11:56 Vrbl 5 10.00 Fair CLR 72 39 72 52 30% 30 1014.2
07 10:56 W 9 10.00 Fair CLR 71.1 39.9 32% 30.01 1014.6
07 09:56 W 7 10.00 Fair CLR 69.1 41 36% 30.01 1014.9
Date Time (mdt) Wind (mph) Vis. (mi.) Weather Sky Cond. Air Dwpt Max. Min. Relative Humidity Wind Chill (°F) Heat Index (°F) altimeter (in) sea level (mb) 1 hr 3 hr 6 hr
6 hour
Temperature (ºF) Pressure Precipitation (in)